Time;durP1;ratioP1;P1;durP2;ratioP2;P2;SDS_P1;SDS_P2;PMS_P1;PMS_P2;Temp;Humidity;BMP_temperature;BMP_pressure;BME280_temperature;BME280_humidity;BME280_pressure;Samples;Min_cycle;Max_cycle;Signal;HPM_P1;HPM_P2
2021/11/15 00:01:06;;;;;;;22.77;13.25;;;10.60;99.90;;;;;;5056751;28;20247;-80
2021/11/15 00:03:33;;;;;;;22.00;13.27;;;10.60;99.90;;;;;;5056706;28;20601;-80
2021/11/15 00:06:00;;;;;;;19.17;9.63;;;10.60;99.90;;;;;;5059438;28;20479;-80
2021/11/15 00:08:28;;;;;;;21.67;12.20;;;10.60;99.90;;;;;;5066948;28;20201;-80
2021/11/15 00:10:55;;;;;;;18.17;10.05;;;10.40;99.90;;;;;;5056811;28;20550;-80
2021/11/15 00:13:22;;;;;;;20.73;12.65;;;10.60;99.90;;;;;;5062411;28;20274;-80
2021/11/15 00:15:49;;;;;;;21.88;11.82;;;10.50;99.90;;;;;;5055959;28;20259;-80
2021/11/15 00:18:16;;;;;;;20.08;11.18;;;10.50;99.90;;;;;;5056340;28;20219;-81
2021/11/15 00:20:43;;;;;;;21.80;13.00;;;10.50;99.90;;;;;;5063643;28;20327;-80
2021/11/15 00:23:10;;;;;;;21.83;13.18;;;10.40;99.90;;;;;;5062404;28;20288;-80
2021/11/15 00:25:38;;;;;;;17.77;11.10;;;10.30;99.90;;;;;;5055852;28;20695;-80
2021/11/15 00:28:05;;;;;;;18.10;10.93;;;10.30;99.90;;;;;;5056462;28;20231;-81
2021/11/15 00:30:32;;;;;;;18.70;11.70;;;10.40;99.90;;;;;;5057111;28;20290;-81
2021/11/15 00:32:59;;;;;;;22.95;11.82;;;10.30;99.90;;;;;;5056386;28;20232;-81
2021/11/15 00:35:26;;;;;;;19.70;11.90;;;10.30;99.90;;;;;;5056291;28;20573;-81
2021/11/15 00:37:53;;;;;;;20.43;12.70;;;10.40;99.90;;;;;;5056714;28;20477;-81
2021/11/15 00:40:20;;;;;;;17.25;9.85;;;10.30;99.90;;;;;;5055991;28;20505;-81
2021/11/15 00:42:49;;;;;;;22.58;11.10;;;10.40;99.90;;;;;;5057337;28;20264;-81
2021/11/15 00:45:17;;;;;;;17.30;10.63;;;10.30;99.90;;;;;;5057354;28;20213;-81
2021/11/15 00:47:44;;;;;;;18.50;11.55;;;10.30;99.90;;;;;;5055780;28;20239;-81
2021/11/15 00:50:14;;;;;;;19.75;12.02;;;10.30;99.90;;;;;;5061536;28;20211;-82
2021/11/15 00:52:41;;;;;;;18.05;11.10;;;10.20;99.90;;;;;;5061317;28;20222;-82
2021/11/15 00:55:08;;;;;;;19.42;11.07;;;10.40;99.90;;;;;;5055743;28;20329;-81
2021/11/15 00:57:35;;;;;;;18.85;11.65;;;10.30;99.90;;;;;;5054728;28;20236;-80
2021/11/15 01:00:07;;;;;;;21.52;12.27;;;10.40;99.90;;;;;;5055670;28;20227;-80
2021/11/15 01:02:33;;;;;;;19.08;12.02;;;10.30;99.90;;;;;;5054918;28;20648;-79
2021/11/15 01:05:00;;;;;;;18.05;11.48;;;10.20;99.90;;;;;;5054782;28;20326;-79
2021/11/15 01:07:28;;;;;;;19.95;11.32;;;10.20;99.90;;;;;;5054739;28;20754;-80
2021/11/15 01:09:54;;;;;;;19.27;11.48;;;10.20;99.90;;;;;;5055134;28;20268;-79
2021/11/15 01:12:21;;;;;;;21.33;11.95;;;10.30;99.90;;;;;;5055058;28;20216;-80
2021/11/15 01:14:48;;;;;;;18.65;11.50;;;10.30;99.90;;;;;;5057248;28;20197;-79
2021/11/15 01:17:16;;;;;;;19.73;9.82;;;10.10;99.90;;;;;;5057749;28;20330;-79
2021/11/15 01:19:43;;;;;;;20.75;12.40;;;10.20;99.90;;;;;;5058137;28;20229;-79
2021/11/15 01:22:10;;;;;;;20.23;9.60;;;10.00;99.90;;;;;;5057932;28;20681;-79
2021/11/15 01:24:37;;;;;;;16.35;10.85;;;10.10;99.90;;;;;;5060677;28;20525;-80
2021/11/15 01:27:04;;;;;;;15.18;10.25;;;10.10;99.90;;;;;;5069296;28;20239;-80
2021/11/15 01:29:31;;;;;;;16.13;10.57;;;10.00;99.90;;;;;;5069659;28;20262;-79
2021/11/15 01:32:00;;;;;;;16.13;10.15;;;10.10;99.90;;;;;;5062392;28;20296;-80
2021/11/15 01:34:29;;;;;;;17.30;7.70;;;10.10;99.90;;;;;;5058517;28;20222;-80
2021/11/15 01:36:56;;;;;;;16.45;9.45;;;10.20;99.90;;;;;;5057945;28;20234;-79
2021/11/15 01:39:24;;;;;;;16.70;9.93;;;10.00;99.90;;;;;;5058539;28;20231;-79
2021/11/15 01:41:52;;;;;;;15.02;10.00;;;10.00;99.90;;;;;;5058340;28;20589;-80
2021/11/15 01:44:18;;;;;;;14.20;8.52;;;10.10;99.90;;;;;;5058006;28;20208;-80
2021/11/15 01:46:45;;;;;;;18.45;8.85;;;10.10;99.90;;;;;;5057977;28;20228;-80
2021/11/15 01:49:12;;;;;;;15.63;9.98;;;10.10;99.90;;;;;;5061252;28;20201;-80
2021/11/15 01:51:40;;;;;;;16.92;10.68;;;10.00;99.90;;;;;;5059627;28;20223;-80
2021/11/15 01:54:07;;;;;;;14.68;9.07;;;9.90;99.90;;;;;;5059570;28;20208;-80
2021/11/15 01:56:34;;;;;;;15.18;9.00;;;9.80;99.90;;;;;;5068452;28;20231;-79
2021/11/15 01:59:02;;;;;;;15.85;9.35;;;10.00;99.90;;;;;;5070456;28;20217;-79
2021/11/15 02:01:30;;;;;;;16.77;9.77;;;10.00;99.90;;;;;;5069584;28;20211;-79
2021/11/15 02:03:57;;;;;;;16.25;9.25;;;10.00;99.90;;;;;;5070336;28;20307;-79
2021/11/15 02:06:24;;;;;;;14.25;7.35;;;9.90;99.90;;;;;;5065685;28;20389;-80
2021/11/15 02:08:52;;;;;;;12.73;8.20;;;10.20;99.90;;;;;;5057830;28;20230;-79
2021/11/15 02:11:20;;;;;;;12.45;8.02;;;10.20;99.90;;;;;;5058418;28;20213;-80
2021/11/15 02:13:47;;;;;;;13.32;8.85;;;10.10;99.90;;;;;;5058380;28;20212;-80
2021/11/15 02:16:15;;;;;;;14.45;8.70;;;10.00;99.90;;;;;;5059867;28;20327;-79
2021/11/15 02:18:42;;;;;;;13.32;8.38;;;10.00;99.90;;;;;;5058133;28;20830;-80
2021/11/15 02:21:10;;;;;;;13.75;8.52;;;9.90;99.90;;;;;;5066882;28;20230;-79
2021/11/15 02:23:41;;;;;;;16.25;7.85;;;9.70;99.90;;;;;;5063791;28;20228;-80
2021/11/15 02:26:10;;;;;;;13.20;7.78;;;9.90;99.90;;;;;;5061392;28;20238;-81
2021/11/15 02:28:39;;;;;;;15.18;9.48;;;9.80;99.90;;;;;;5056983;28;20662;-80
2021/11/15 02:31:09;;;;;;;16.02;8.48;;;10.00;99.90;;;;;;5057765;28;20296;-80
2021/11/15 02:33:36;;;;;;;12.68;6.90;;;9.90;99.90;;;;;;5057525;28;20210;-80
2021/11/15 02:36:05;;;;;;;13.77;8.95;;;9.90;99.90;;;;;;5066653;28;20227;-80
2021/11/15 02:38:33;;;;;;;17.58;8.77;;;9.60;99.90;;;;;;5057455;28;20265;-80
2021/11/15 02:41:01;;;;;;;14.73;8.80;;;9.70;99.90;;;;;;5058366;28;20246;-80
2021/11/15 02:43:28;;;;;;;11.63;7.68;;;9.60;99.90;;;;;;5058162;28;20207;-80
2021/11/15 02:45:55;;;;;;;13.43;7.45;;;9.60;99.90;;;;;;5058238;28;20313;-80
2021/11/15 02:48:24;;;;;;;13.07;8.48;;;9.60;99.90;;;;;;5057788;28;20562;-80
2021/11/15 02:50:52;;;;;;;11.73;7.78;;;9.70;99.90;;;;;;5057517;28;20629;-80
2021/11/15 02:53:19;;;;;;;12.00;7.82;;;9.70;99.90;;;;;;5058155;28;20205;-80
2021/11/15 02:55:48;;;;;;;13.73;8.20;;;9.80;99.90;;;;;;5057437;28;20293;-80
2021/11/15 02:58:16;;;;;;;13.02;7.97;;;9.70;99.90;;;;;;5057541;28;20271;-80
2021/11/15 03:00:46;;;;;;;13.07;8.82;;;9.70;99.90;;;;;;5057838;28;20570;-80
2021/11/15 03:03:14;;;;;;;12.82;8.07;;;9.60;99.90;;;;;;5057808;28;20212;-80
2021/11/15 03:05:46;;;;;;;14.07;9.77;;;9.60;99.90;;;;;;5058816;28;20249;-80
2021/11/15 03:08:13;;;;;;;14.15;9.10;;;9.50;99.90;;;;;;5058943;28;20214;-80
2021/11/15 03:10:43;;;;;;;15.45;8.98;;;9.60;99.90;;;;;;5057183;28;20209;-80
2021/11/15 03:13:13;;;;;;;14.43;9.85;;;9.50;99.90;;;;;;5058124;28;20215;-80
2021/11/15 03:15:43;;;;;;;12.50;7.90;;;9.50;99.90;;;;;;5058429;28;20262;-80
2021/11/15 03:18:12;;;;;;;12.88;8.48;;;9.60;99.90;;;;;;5062728;28;20242;-80
2021/11/15 03:20:41;;;;;;;14.32;8.27;;;9.50;99.90;;;;;;5071329;28;20298;-80
2021/11/15 03:23:09;;;;;;;14.90;9.65;;;9.60;99.90;;;;;;5059553;28;20682;-80
2021/11/15 03:25:37;;;;;;;12.13;7.90;;;9.60;99.90;;;;;;5057429;28;20245;-80
2021/11/15 03:28:05;;;;;;;13.73;8.13;;;9.50;99.90;;;;;;5057698;28;20204;-80
2021/11/15 03:30:33;;;;;;;15.70;9.23;;;9.80;99.90;;;;;;5062195;28;20610;-80
2021/11/15 03:33:00;;;;;;;14.40;8.55;;;9.80;99.90;;;;;;5071888;28;20502;-80
2021/11/15 03:35:27;;;;;;;14.02;9.38;;;9.60;99.90;;;;;;5059433;28;20242;-80
2021/11/15 03:37:54;;;;;;;13.93;8.55;;;9.90;99.90;;;;;;5057816;28;20596;-80
2021/11/15 03:40:24;;;;;;;15.82;10.35;;;10.00;99.90;;;;;;5057272;28;20228;-80
2021/11/15 03:42:53;;;;;;;16.73;10.25;;;9.90;99.90;;;;;;5056449;28;20212;-80
2021/11/15 03:45:21;;;;;;;20.20;11.90;;;10.00;99.90;;;;;;5058466;28;20740;-80
2021/11/15 03:47:50;;;;;;;18.63;12.15;;;9.90;99.90;;;;;;5064193;28;20562;-79
2021/11/15 03:50:17;;;;;;;22.77;12.70;;;9.90;99.90;;;;;;5066109;28;20307;-80
2021/11/15 03:52:45;;;;;;;19.55;11.90;;;9.90;99.90;;;;;;5072351;28;20218;-79
2021/11/15 03:55:15;;;;;;;23.17;12.23;;;9.80;99.90;;;;;;5071827;28;20207;-78
2021/11/15 03:57:43;;;;;;;17.88;10.02;;;9.90;99.90;;;;;;5054555;28;20232;-78
2021/11/15 04:00:13;;;;;;;22.42;13.50;;;10.00;99.90;;;;;;5054754;28;20234;-78
2021/11/15 04:02:41;;;;;;;22.08;12.10;;;9.80;99.90;;;;;;5061223;28;20273;-81
2021/11/15 04:05:11;;;;;;;17.98;11.25;;;9.80;99.90;;;;;;5061197;28;20211;-81
2021/11/15 04:07:42;;;;;;;16.70;10.85;;;9.70;99.90;;;;;;5082251;22;20236;-78
2021/11/15 04:10:14;;;;;;;13.57;8.85;;;9.50;99.90;;;;;;5054755;28;20537;-78
2021/11/15 04:12:42;;;;;;;16.55;10.45;;;9.30;99.90;;;;;;5053142;28;20188;-77
2021/11/15 04:15:10;;;;;;;13.18;8.48;;;9.40;99.90;;;;;;5053903;28;20208;-77
2021/11/15 04:17:38;;;;;;;15.80;8.30;;;9.30;99.90;;;;;;5054453;28;20299;-78
2021/11/15 04:20:07;;;;;;;15.75;9.63;;;9.50;99.90;;;;;;5055144;28;20230;-78
2021/11/15 04:22:36;;;;;;;14.05;9.13;;;9.50;99.90;;;;;;5054914;28;20279;-77
2021/11/15 04:25:03;;;;;;;16.55;10.18;;;9.30;99.90;;;;;;5054303;28;20303;-78
2021/11/15 04:27:30;;;;;;;16.90;9.10;;;9.30;99.90;;;;;;5052734;28;20228;-78
2021/11/15 04:29:57;;;;;;;13.05;8.57;;;9.20;99.90;;;;;;5054026;28;20250;-77
2021/11/15 04:32:24;;;;;;;14.88;8.65;;;9.20;99.90;;;;;;5053033;28;20722;-77
2021/11/15 04:34:51;;;;;;;13.68;8.48;;;9.20;99.90;;;;;;5052760;28;20207;-77
2021/11/15 04:37:19;;;;;;;14.60;8.00;;;9.30;99.90;;;;;;5053363;28;20227;-77
2021/11/15 04:39:47;;;;;;;16.27;9.75;;;9.40;99.90;;;;;;5052721;28;20211;-77
2021/11/15 04:42:14;;;;;;;13.82;8.30;;;9.20;99.90;;;;;;5052565;28;20211;-78
2021/11/15 04:44:42;;;;;;;16.15;9.10;;;9.30;99.90;;;;;;5055531;28;20207;-78
2021/11/15 04:47:09;;;;;;;11.73;7.45;;;9.20;99.90;;;;;;5055556;28;20259;-78
2021/11/15 04:49:35;;;;;;;15.45;8.20;;;9.50;99.90;;;;;;5057972;28;20692;-78
2021/11/15 04:52:02;;;;;;;13.38;8.88;;;9.50;99.90;;;;;;5058868;28;20214;-78
2021/11/15 04:54:29;;;;;;;13.23;7.38;;;9.40;99.90;;;;;;5059026;28;20218;-78
2021/11/15 04:56:57;;;;;;;12.02;7.60;;;9.50;99.90;;;;;;5058458;28;20222;-78
2021/11/15 04:59:24;;;;;;;17.75;9.57;;;9.60;99.90;;;;;;5062700;28;20212;-78
2021/11/15 05:01:51;;;;;;;12.88;8.00;;;9.50;99.90;;;;;;5059125;28;20320;-78
2021/11/15 05:04:18;;;;;;;14.80;10.50;;;9.50;99.90;;;;;;5058402;28;20675;-78
2021/11/15 05:06:45;;;;;;;16.45;9.10;;;9.40;99.90;;;;;;5059551;28;20208;-78
2021/11/15 05:09:13;;;;;;;13.40;8.25;;;9.40;99.90;;;;;;5062637;28;20231;-78
2021/11/15 05:11:40;;;;;;;12.35;6.90;;;9.40;99.90;;;;;;5061484;28;20649;-78
2021/11/15 05:14:08;;;;;;;14.30;8.07;;;9.40;99.90;;;;;;5056711;28;20600;-77
2021/11/15 05:16:35;;;;;;;14.57;8.90;;;9.50;99.90;;;;;;5057476;28;20297;-78
2021/11/15 05:19:02;;;;;;;14.80;8.10;;;9.50;99.90;;;;;;5057318;28;20238;-78
2021/11/15 05:21:29;;;;;;;13.88;9.50;;;9.50;99.90;;;;;;5056801;28;20730;-78
2021/11/15 05:23:56;;;;;;;15.15;9.00;;;9.30;99.90;;;;;;5056464;28;20223;-77
2021/11/15 05:26:24;;;;;;;16.00;9.40;;;9.40;99.90;;;;;;5056629;28;20298;-78
2021/11/15 05:28:51;;;;;;;12.70;6.40;;;9.40;99.90;;;;;;5056713;28;20234;-77
2021/11/15 05:31:19;;;;;;;14.65;8.32;;;9.50;99.90;;;;;;5057236;28;20364;-78
2021/11/15 05:33:46;;;;;;;16.23;9.55;;;9.50;99.90;;;;;;5061941;28;20203;-78
2021/11/15 05:36:13;;;;;;;18.00;9.63;;;9.30;99.90;;;;;;5059364;28;20554;-77
2021/11/15 05:38:40;;;;;;;17.02;9.93;;;9.20;99.90;;;;;;5056065;28;20247;-78
2021/11/15 05:41:07;;;;;;;13.60;9.05;;;8.90;99.90;;;;;;5055644;28;20228;-77
2021/11/15 05:43:34;;;;;;;16.98;10.20;;;9.10;99.90;;;;;;5056045;28;20210;-78
2021/11/15 05:46:01;;;;;;;13.43;8.75;;;9.00;99.90;;;;;;5055952;28;20550;-76
2021/11/15 05:48:29;;;;;;;16.73;9.85;;;9.10;99.90;;;;;;5055823;28;20227;-79
2021/11/15 05:50:56;;;;;;;14.68;9.75;;;9.10;99.90;;;;;;5055954;28;20219;-77
2021/11/15 05:53:23;;;;;;;16.30;9.57;;;9.20;99.90;;;;;;5056529;28;20215;-77
2021/11/15 05:55:49;;;;;;;13.90;9.73;;;9.00;99.90;;;;;;5057349;28;20596;-78
2021/11/15 05:58:17;;;;;;;15.95;9.13;;;9.20;99.90;;;;;;5055985;28;20747;-77
2021/11/15 06:00:45;;;;;;;15.73;9.90;;;9.10;99.90;;;;;;5055532;28;20228;-78
2021/11/15 06:03:12;;;;;;;16.40;9.13;;;9.10;99.90;;;;;;5057103;28;20266;-77
2021/11/15 06:05:40;;;;;;;17.83;11.20;;;9.00;99.90;;;;;;5055598;28;20214;-77
2021/11/15 06:08:07;;;;;;;16.15;10.02;;;9.20;99.90;;;;;;5056812;28;20695;-79
2021/11/15 06:10:34;;;;;;;16.42;10.30;;;9.40;99.90;;;;;;5056307;28;20200;-77
2021/11/15 06:13:05;;;;;;;20.20;11.18;;;9.30;99.90;;;;;;5055070;28;20219;-78
2021/11/15 06:15:32;;;;;;;16.67;10.05;;;9.40;99.90;;;;;;5054898;28;20218;-77
2021/11/15 06:17:59;;;;;;;18.05;9.88;;;9.50;99.90;;;;;;5055948;28;20322;-77
2021/11/15 06:20:26;;;;;;;16.13;9.02;;;9.40;99.90;;;;;;5054258;28;20215;-77
2021/11/15 06:22:54;;;;;;;15.27;9.02;;;9.70;99.90;;;;;;5054500;28;20203;-77
2021/11/15 06:25:21;;;;;;;16.40;10.50;;;9.60;99.90;;;;;;5054478;28;20655;-77
2021/11/15 06:27:47;;;;;;;16.02;10.48;;;9.50;99.90;;;;;;5056021;28;20583;-78
2021/11/15 06:30:18;;;;;;;16.98;9.80;;;9.20;99.90;;;;;;5056818;28;20206;-79
2021/11/15 06:32:45;;;;;;;17.73;9.65;;;9.20;99.90;;;;;;5057275;28;20194;-78
2021/11/15 06:35:13;;;;;;;15.30;9.85;;;9.10;99.90;;;;;;5056948;28;20208;-78
2021/11/15 06:37:40;;;;;;;18.40;10.60;;;9.20;99.90;;;;;;5056262;28;20238;-78
2021/11/15 06:40:11;;;;;;;16.55;9.73;;;9.10;99.90;;;;;;5057044;28;20208;-79
2021/11/15 06:42:38;;;;;;;16.05;8.52;;;9.20;99.90;;;;;;5056447;28;20236;-76
2021/11/15 06:45:07;;;;;;;15.88;9.70;;;9.30;99.90;;;;;;5055718;28;20208;-77
2021/11/15 06:47:36;;;;;;;19.98;10.88;;;9.00;99.90;;;;;;5056404;28;20358;-79
2021/11/15 06:50:06;;;;;;;19.48;10.35;;;9.30;99.90;;;;;;5059666;28;20223;-78
2021/11/15 06:52:33;;;;;;;17.13;10.90;;;9.20;99.90;;;;;;5055901;28;20272;-76
2021/11/15 06:55:00;;;;;;;17.05;11.35;;;9.20;99.90;;;;;;5055206;28;20517;-78
2021/11/15 06:57:29;;;;;;;17.30;8.63;;;9.20;99.90;;;;;;5054635;28;20652;-80
2021/11/15 06:59:56;;;;;;;20.92;11.07;;;9.30;99.90;;;;;;5054002;28;20208;-77
2021/11/15 07:02:23;;;;;;;11.52;6.70;;;9.40;99.90;;;;;;5054225;28;20233;-78
2021/11/15 07:04:50;;;;;;;17.10;9.98;;;9.60;99.90;;;;;;5055632;28;20660;-77
2021/11/15 07:07:17;;;;;;;14.93;9.98;;;9.40;99.90;;;;;;5054262;28;20239;-79
2021/11/15 07:09:46;;;;;;;20.67;10.80;;;9.50;99.90;;;;;;5056194;28;20277;-78
2021/11/15 07:12:13;;;;;;;18.23;10.88;;;9.30;99.90;;;;;;5055716;28;20204;-78
2021/11/15 07:14:42;;;;;;;19.00;10.73;;;9.40;99.90;;;;;;5055490;28;20218;-78
2021/11/15 07:17:09;;;;;;;18.40;10.05;;;9.20;99.90;;;;;;5056350;28;20208;-78
2021/11/15 07:19:37;;;;;;;19.08;10.57;;;9.20;99.90;;;;;;5059567;28;20235;-78
2021/11/15 07:22:04;;;;;;;17.90;9.93;;;9.30;99.90;;;;;;5056538;28;20286;-78
2021/11/15 07:24:31;;;;;;;18.50;11.70;;;9.40;99.90;;;;;;5056286;28;20208;-78
2021/11/15 07:26:58;;;;;;;21.20;11.68;;;9.50;99.90;;;;;;5060800;28;20296;-77
2021/11/15 07:29:25;;;;;;;15.88;10.30;;;9.70;99.90;;;;;;5060473;28;20248;-77
2021/11/15 07:31:53;;;;;;;16.60;10.05;;;9.70;99.90;;;;;;5053557;28;20202;-78
2021/11/15 07:34:21;;;;;;;16.27;9.88;;;9.70;99.90;;;;;;5054314;28;20338;-79
2021/11/15 07:36:48;;;;;;;18.85;11.55;;;9.60;99.90;;;;;;5056871;28;20213;-80
2021/11/15 07:39:15;;;;;;;18.88;10.65;;;9.60;99.90;;;;;;5054998;28;20227;-78
2021/11/15 07:41:41;;;;;;;15.25;10.88;;;9.40;99.90;;;;;;5052969;28;20271;-78
2021/11/15 07:44:08;;;;;;;12.80;6.28;;;9.30;99.90;;;;;;5054000;28;20675;-77
2021/11/15 07:46:35;;;;;;;19.73;11.45;;;9.50;99.90;;;;;;5054503;28;20581;-77
2021/11/15 07:49:03;;;;;;;16.20;10.65;;;9.30;99.90;;;;;;5053944;28;20399;-78
2021/11/15 07:51:30;;;;;;;16.30;10.38;;;9.30;99.90;;;;;;5053969;28;20215;-78
2021/11/15 07:53:57;;;;;;;19.08;11.05;;;9.30;99.90;;;;;;5053442;28;20238;-77
2021/11/15 07:56:24;;;;;;;18.48;11.02;;;9.40;99.90;;;;;;5052885;28;20218;-78
2021/11/15 07:58:51;;;;;;;20.73;11.27;;;9.40;99.90;;;;;;5051823;28;20258;-78
2021/11/15 08:01:18;;;;;;;15.27;9.32;;;9.40;99.90;;;;;;5053715;28;20318;-77
2021/11/15 08:03:44;;;;;;;18.92;10.05;;;9.60;99.90;;;;;;5053443;28;20231;-77
2021/11/15 08:06:15;;;;;;;17.27;10.40;;;9.70;99.90;;;;;;5057224;28;20736;-77
2021/11/15 08:08:43;;;;;;;19.00;10.73;;;9.60;99.90;;;;;;5053560;28;20250;-76
2021/11/15 08:11:11;;;;;;;18.33;10.80;;;9.40;99.90;;;;;;5055304;28;20239;-78
2021/11/15 08:13:38;;;;;;;18.45;9.95;;;9.30;99.90;;;;;;5062072;28;20256;-78
2021/11/15 08:16:05;;;;;;;17.13;9.27;;;9.40;99.90;;;;;;5056255;28;20191;-78
2021/11/15 08:18:32;;;;;;;19.25;11.55;;;9.50;99.90;;;;;;5065132;28;20226;-78
2021/11/15 08:21:01;;;;;;;19.88;11.23;;;9.40;99.90;;;;;;5057775;28;20291;-78
2021/11/15 08:23:29;;;;;;;14.52;10.18;;;9.40;99.90;;;;;;5061645;28;20586;-84
2021/11/15 08:26:29;;;;;;;18.55;10.95;;;9.50;99.90;;;;;;5059536;28;20220;-77
2021/11/15 08:29:02;;;;;;;22.45;11.75;;;9.50;99.90;;;;;;5062533;28;20238;-77
2021/11/15 08:31:30;;;;;;;21.13;12.60;;;9.20;99.90;;;;;;5060165;28;20211;-78
2021/11/15 08:37:19;;;;;;;21.75;12.23;;;9.20;99.90;;;;;;5059650;28;20295;-80
2021/11/15 08:39:47;;;;;;;19.08;10.18;;;9.30;99.90;;;;;;5059749;28;20209;-79
2021/11/15 08:42:14;;;;;;;18.52;11.00;;;9.40;99.90;;;;;;5059770;28;20660;-79
2021/11/15 08:44:44;;;;;;;17.48;11.13;;;9.30;99.90;;;;;;5060887;28;20223;-79
2021/11/15 08:47:11;;;;;;;19.05;10.38;;;9.30;99.90;;;;;;5059789;28;20212;-78
2021/11/15 08:49:37;;;;;;;20.88;9.90;;;9.40;99.90;;;;;;5061098;28;20209;-78
2021/11/15 08:52:06;;;;;;;18.52;11.07;;;9.30;99.90;;;;;;5059375;28;20204;-78
2021/11/15 08:54:33;;;;;;;21.08;11.35;;;9.50;99.90;;;;;;5058893;28;20207;-78
2021/11/15 08:57:05;;;;;;;20.33;11.15;;;9.20;99.90;;;;;;5057536;28;20293;-79
2021/11/15 08:59:32;;;;;;;22.00;11.80;;;9.20;99.90;;;;;;5061406;28;20198;-78
2021/11/15 09:02:00;;;;;;;22.13;12.80;;;9.50;99.90;;;;;;5063560;28;20232;-79
2021/11/15 09:04:27;;;;;;;20.50;12.27;;;9.30;99.90;;;;;;5058515;28;20207;-79
2021/11/15 09:06:54;;;;;;;19.40;10.88;;;9.40;99.90;;;;;;5058495;28;20211;-79
2021/11/15 09:09:27;;;;;;;19.83;11.13;;;9.60;99.90;;;;;;5057767;28;20717;-78
2021/11/15 09:11:56;;;;;;;16.80;10.82;;;9.50;99.90;;;;;;5065826;28;20188;-79
2021/11/15 09:14:24;;;;;;;21.08;11.25;;;9.50;99.90;;;;;;5068655;28;20239;-79
2021/11/15 09:16:52;;;;;;;16.48;9.27;;;9.60;99.90;;;;;;5066287;28;20218;-78
2021/11/15 09:19:20;;;;;;;18.08;11.27;;;9.70;99.90;;;;;;5068749;28;20614;-79
2021/11/15 09:21:47;;;;;;;18.17;11.00;;;9.70;99.90;;;;;;5067621;28;20233;-78
2021/11/15 09:24:14;;;;;;;16.77;11.15;;;9.50;99.90;;;;;;5064081;28;20324;-79
2021/11/15 09:26:41;;;;;;;16.65;10.10;;;9.50;99.90;;;;;;5066316;28;20208;-79
2021/11/15 09:29:08;;;;;;;18.60;11.10;;;9.50;99.90;;;;;;5068895;28;20249;-79
2021/11/15 09:31:36;;;;;;;18.13;12.43;;;9.50;99.90;;;;;;5070167;28;20212;-79
2021/11/15 09:34:03;;;;;;;15.70;10.40;;;9.50;99.90;;;;;;5067121;28;20208;-78
2021/11/15 09:36:30;;;;;;;16.40;10.45;;;9.70;99.90;;;;;;5065701;28;20569;-79
2021/11/15 09:38:58;;;;;;;15.73;11.25;;;9.70;99.90;;;;;;5073560;28;20234;-79
2021/11/15 09:41:26;;;;;;;16.95;11.40;;;9.40;99.90;;;;;;5068640;28;20311;-79
2021/11/15 09:43:54;;;;;;;16.40;10.30;;;9.80;99.90;;;;;;5066760;28;20688;-78
2021/11/15 09:46:23;;;;;;;18.13;11.40;;;9.60;99.90;;;;;;5063673;28;20966;-78
2021/11/15 09:48:59;;;;;;;15.60;10.40;;;9.60;99.90;;;;;;5059364;28;20597;-78
2021/11/15 09:51:26;;;;;;;18.27;10.82;;;9.50;99.90;;;;;;5059790;28;20196;-78
2021/11/15 09:53:54;;;;;;;15.85;10.88;;;9.50;99.90;;;;;;5060431;28;20207;-77
2021/11/15 09:56:23;;;;;;;19.10;10.15;;;9.60;99.90;;;;;;5060924;28;20295;-79
2021/11/15 09:58:49;;;;;;;17.60;10.90;;;9.70;99.90;;;;;;5064052;28;20217;-78
2021/11/15 10:01:17;;;;;;;17.00;10.18;;;9.60;99.90;;;;;;5059310;28;20550;-78
2021/11/15 10:03:44;;;;;;;16.23;10.15;;;9.60;99.90;;;;;;5059977;28;20237;-79
2021/11/15 10:06:12;;;;;;;18.02;11.73;;;9.80;99.90;;;;;;5061128;28;20208;-79
2021/11/15 10:08:44;;;;;;;17.00;11.00;;;9.80;99.90;;;;;;5092714;22;20688;-79
2021/11/15 10:11:11;;;;;;;16.67;11.10;;;9.80;99.90;;;;;;5077837;28;20198;-79
2021/11/15 10:13:40;;;;;;;17.27;11.63;;;9.90;99.90;;;;;;5078057;28;20203;-81
2021/11/15 10:16:09;;;;;;;18.67;11.15;;;9.80;99.90;;;;;;5078113;28;20210;-81
2021/11/15 10:18:45;;;;;;;17.42;10.00;;;9.70;99.90;;;;;;5082194;28;20263;-81
2021/11/15 10:21:17;;;;;;;17.20;12.05;;;9.70;99.90;;;;;;5079930;28;20218;-80
2021/11/15 10:23:48;;;;;;;17.40;11.38;;;9.70;99.90;;;;;;5078316;28;20394;-80
2021/11/15 10:26:21;;;;;;;21.50;12.05;;;9.70;99.90;;;;;;5078955;28;20215;-80
2021/11/15 10:28:53;;;;;;;19.00;12.35;;;9.60;99.90;;;;;;5078095;28;20276;-82
2021/11/15 10:31:44;;;;;;;16.95;11.70;;;9.60;99.90;;;;;;5079094;28;20261;-84
2021/11/15 10:34:13;;;;;;;20.90;11.40;;;9.80;99.90;;;;;;5075727;28;20302;-83
2021/11/15 10:37:04;;;;;;;19.80;11.50;;;9.90;99.90;;;;;;5078691;28;20602;-84
2021/11/15 10:39:38;;;;;;;16.95;10.77;;;10.00;99.90;;;;;;5087995;28;20226;-84
2021/11/15 10:42:11;;;;;;;18.00;10.93;;;9.90;99.90;;;;;;5082660;28;20211;-84
2021/11/15 10:44:44;;;;;;;18.90;11.27;;;9.80;99.90;;;;;;5076531;28;20204;-88
2021/11/15 10:47:11;;;;;;;19.95;12.82;;;9.30;99.90;;;;;;5076622;28;20191;-85
2021/11/15 10:49:38;;;;;;;17.25;11.18;;;9.80;99.90;;;;;;5080436;28;20321;-85
2021/11/15 10:52:13;;;;;;;17.67;10.52;;;9.70;99.90;;;;;;5085396;28;20209;-84
2021/11/15 10:54:49;;;;;;;14.80;10.68;;;10.00;99.90;;;;;;5080491;28;20241;-84
2021/11/15 10:57:31;;;;;;;19.13;10.20;;;10.00;99.90;;;;;;5082525;28;20187;-84
2021/11/15 11:00:29;;;;;;;16.35;12.23;;;9.90;99.90;;;;;;5081696;28;20200;-84
2021/11/15 11:03:08;;;;;;;21.85;13.70;;;9.60;99.90;;;;;;5084923;28;20253;-84
2021/11/15 11:05:38;;;;;;;22.52;13.90;;;9.50;99.90;;;;;;5086018;28;20277;-84
2021/11/15 11:08:13;;;;;;;20.83;12.70;;;9.60;99.90;;;;;;5084125;28;20413;-83
2021/11/15 11:10:48;;;;;;;18.98;11.95;;;9.50;99.90;;;;;;5087321;28;20226;-84
2021/11/15 11:13:16;;;;;;;20.65;13.00;;;9.60;99.90;;;;;;5081272;28;20278;-83
2021/11/15 11:15:46;;;;;;;22.02;13.40;;;9.50;99.90;;;;;;5078234;28;20631;-82
2021/11/15 11:18:16;;;;;;;21.85;13.23;;;9.50;99.90;;;;;;5078189;28;20698;-81
2021/11/15 11:26:51;;;;;;;19.83;12.85;;;9.50;99.90;;;;;;5078271;28;20206;-82
2021/11/15 11:29:20;;;;;;;23.90;15.65;;;9.50;99.90;;;;;;5079618;28;20227;-80
2021/11/15 11:31:49;;;;;;;22.27;14.60;;;9.30;99.90;;;;;;5078116;28;20214;-81
2021/11/15 11:34:17;;;;;;;24.13;14.82;;;9.40;99.90;;;;;;5078384;28;20274;-82
2021/11/15 11:36:45;;;;;;;19.92;15.30;;;9.40;99.90;;;;;;5078157;28;20206;-84
2021/11/15 11:39:14;;;;;;;21.25;14.60;;;9.60;99.90;;;;;;5077923;28;20227;-81
2021/11/15 11:41:43;;;;;;;20.52;14.55;;;9.50;99.90;;;;;;5077291;28;20217;-81
2021/11/15 11:44:12;;;;;;;20.33;13.10;;;9.70;99.90;;;;;;5078845;28;20259;-82
2021/11/15 11:46:40;;;;;;;22.73;14.43;;;9.70;99.90;;;;;;5077805;28;20229;-81
2021/11/15 11:49:10;;;;;;;20.45;14.05;;;9.70;99.90;;;;;;5078482;28;20232;-82
2021/11/15 11:51:49;;;;;;;21.15;14.20;;;9.80;99.90;;;;;;5080108;28;20613;-81
2021/11/15 11:54:20;;;;;;;22.10;14.45;;;9.80;99.90;;;;;;5079935;28;20281;-83
2021/11/15 11:57:12;;;;;;;22.42;14.95;;;9.80;99.90;;;;;;5080092;28;20202;-81
2021/11/15 11:59:59;;;;;;;23.60;14.30;;;9.70;99.90;;;;;;5079601;28;20294;-81
2021/11/15 12:02:32;;;;;;;25.63;15.15;;;9.60;99.90;;;;;;5078325;28;20304;-81
2021/11/15 12:05:03;;;;;;;22.00;13.95;;;9.60;99.90;;;;;;5077403;28;20282;-81
2021/11/15 12:07:32;;;;;;;24.20;15.02;;;9.50;99.90;;;;;;5077909;28;20191;-81
2021/11/15 12:10:04;;;;;;;22.05;15.52;;;9.50;99.90;;;;;;5079626;28;20271;-81
2021/11/15 12:13:02;;;;;;;24.48;15.43;;;9.50;99.90;;;;;;5078018;28;20239;-82
2021/11/15 12:15:32;;;;;;;22.77;15.55;;;9.60;99.90;;;;;;5076634;28;20207;-82
2021/11/15 12:18:06;;;;;;;21.13;14.63;;;9.70;99.90;;;;;;5076101;28;20228;-81
2021/11/15 12:20:33;;;;;;;24.35;14.23;;;9.70;99.90;;;;;;5076642;28;20190;-81
2021/11/15 12:23:12;;;;;;;22.70;14.55;;;9.60;99.90;;;;;;5076550;28;20313;-81
2021/11/15 12:26:01;;;;;;;23.33;14.25;;;9.60;99.90;;;;;;5082822;28;20227;-81
2021/11/15 12:28:30;;;;;;;23.67;15.25;;;9.60;99.90;;;;;;5090642;28;20231;-81
2021/11/15 12:30:58;;;;;;;19.25;14.23;;;9.50;99.90;;;;;;5085096;28;20261;-82
2021/11/15 12:33:27;;;;;;;20.30;13.48;;;9.50;99.90;;;;;;5081914;28;20211;-81
2021/11/15 12:36:01;;;;;;;26.13;13.93;;;9.50;99.90;;;;;;5088984;28;20214;-81
2021/11/15 12:38:48;;;;;;;20.20;13.60;;;9.50;99.90;;;;;;5077920;28;20282;-81
2021/11/15 12:41:36;;;;;;;24.48;15.10;;;9.50;99.90;;;;;;5078531;28;20191;-81
2021/11/15 12:44:25;;;;;;;27.27;15.50;;;9.50;99.90;;;;;;5089303;28;20247;-80
2021/11/15 12:46:59;;;;;;;24.35;14.80;;;9.50;99.90;;;;;;5086260;28;20199;-79
2021/11/15 12:49:33;;;;;;;20.75;14.10;;;9.50;99.90;;;;;;5083334;28;20313;-79
2021/11/15 12:52:25;;;;;;;23.70;15.55;;;9.50;99.90;;;;;;5077793;28;20194;-80
2021/11/15 12:54:55;;;;;;;20.67;14.30;;;9.50;99.90;;;;;;5070252;28;20578;-82
2021/11/15 12:57:32;;;;;;;27.55;19.27;;;9.40;99.90;;;;;;5078571;28;20585;-80